To NAV CANADA Home Page Login to a new session Search on AWWS site Disclaimer Vers la page française équivalente Tips FAQ What's new on the site To the Forecasts and Observations / NOTAM section To "File a Flight Plan" website Publications and other links Update of the User's profile FIC Telephone Numbers My Weather Data Folder Route Weather Data Regional Weather Data Local Weather Data To the Forecasts and Observations / NOTAM section
Request Generated 10/19/2018 at 16:02:09 UTC . Weather information available at that time is displayed.

METAR/TAF

MONCTON/GREATER MONCTON ROMEO LEBLANC INTL/NB    

METAR CYQM 191500Z 26015KT 15SM FEW020 FEW045 FEW220 02/M09 A3004 RMK CU1SC1CI1 CU TR SC TR SLP179=
METAR CYQM 191400Z 27012KT 15SM FEW020 FEW045 FEW100 FEW220 BKN250 01/M08 A3005 RMK SC1SC1AC1CI1CI4 SC TR SC TR AC TR SLP181=
METAR CYQM 191300Z 26013G20KT 15SM FEW020 FEW050 FEW100 FEW240 M00/M08 A3005 RMK SC1SC1AC1CI2 SC TR SC TR AC TR SLP182=

TAF CYQM 191138Z 1912/2012 25010G20KT P6SM FEW020
FM191500 25012G22KT P6SM FEW060 BKN250
BECMG 1916/1918 BKN060
FM200000 20010KT P6SM SCT020 BKN060
FM200400 17010KT P6SM BKN020
RMK NXT FCST BY 191800Z=
Your time UTC time
Weather data provided by Environment Canada and NAV CANADA